createdAt,value
2023-04-03T00:01:19.201Z,86.90
2023-04-03T00:03:47.859Z,86.68
2023-04-03T00:06:15.866Z,86.41
2023-04-03T00:08:43.713Z,87.12
2023-04-03T00:11:11.737Z,88.09
2023-04-03T00:13:40.422Z,87.81
2023-04-03T00:16:10.121Z,87.39
2023-04-03T00:18:39.190Z,88.08
2023-04-03T00:21:07.880Z,88.24
2023-04-03T00:23:35.952Z,88.06
2023-04-03T00:26:03.794Z,88.06
2023-04-03T00:28:31.728Z,88.95
2023-04-03T00:30:59.766Z,89.33
2023-04-03T00:33:27.874Z,88.35
2023-04-03T00:35:56.046Z,88.18
2023-04-03T00:38:23.990Z,89.01
2023-04-03T00:40:51.939Z,88.85
2023-04-03T00:43:25.708Z,89.40
2023-04-03T00:45:56.395Z,90.13
2023-04-03T00:48:31.629Z,90.03
2023-04-03T00:51:00.513Z,89.85
2023-04-03T00:53:37.627Z,90.07
2023-04-03T00:56:13.235Z,89.73
2023-04-03T00:58:49.833Z,90.00
2023-04-03T01:01:23.054Z,90.22
2023-04-03T01:03:52.357Z,90.04
2023-04-03T01:06:29.665Z,90.51
2023-04-03T01:09:01.632Z,90.36
2023-04-03T01:11:29.499Z,90.07
2023-04-03T01:13:57.824Z,90.58
2023-04-03T01:16:26.446Z,90.91
2023-04-03T01:18:54.499Z,90.85
2023-04-03T01:22:04.875Z,90.57
2023-04-03T01:24:39.676Z,90.61
2023-04-03T01:27:11.512Z,91.72
2023-04-03T01:29:41.217Z,92.47
2023-04-03T01:32:09.323Z,91.90
2023-04-03T01:34:37.186Z,91.62
2023-04-03T01:37:05.052Z,92.27
2023-04-03T01:39:32.957Z,91.54
2023-04-03T01:42:02.253Z,91.47
2023-04-03T01:44:33.180Z,92.24
2023-04-03T01:47:01.381Z,91.35
2023-04-03T01:49:30.063Z,91.74
2023-04-03T01:51:58.675Z,91.38
2023-04-03T01:54:26.549Z,91.95
2023-04-03T01:56:55.082Z,91.73
2023-04-03T01:59:23.038Z,92.74
2023-04-03T02:01:51.930Z,93.62
2023-04-03T02:04:20.240Z,93.60
2023-04-03T02:06:48.286Z,92.49
2023-04-03T02:09:16.147Z,92.78
2023-04-03T02:11:44.254Z,93.73
2023-04-03T02:14:12.195Z,93.17
2023-04-03T02:16:40.494Z,94.19
2023-04-03T02:19:08.435Z,93.58
2023-04-03T02:21:36.254Z,94.47
2023-04-03T02:24:04.261Z,93.33
2023-04-03T02:26:32.248Z,93.81
2023-04-03T02:29:00.075Z,94.24
2023-04-03T02:31:28.032Z,96.20
2023-04-03T02:33:56.892Z,95.98
2023-04-03T02:36:24.779Z,94.55
2023-04-03T02:38:56.016Z,96.10
2023-04-03T02:41:24.469Z,96.85
2023-04-03T02:43:52.623Z,96.56
2023-04-03T02:46:20.695Z,97.11
2023-04-03T02:48:49.027Z,96.47
2023-04-03T02:51:17.120Z,96.44
2023-04-03T02:53:44.952Z,96.56
2023-04-03T02:56:15.873Z,96.11
2023-04-03T02:58:44.381Z,97.04
2023-04-03T03:01:14.832Z,96.88
2023-04-03T03:03:42.770Z,97.99
2023-04-03T03:06:13.824Z,97.81
2023-04-03T03:08:42.489Z,97.15
2023-04-03T03:11:11.021Z,97.66
2023-04-03T03:13:38.938Z,97.43
2023-04-03T03:16:07.211Z,97.14
2023-04-03T03:18:36.446Z,97.61
2023-04-03T03:21:05.145Z,98.46
2023-04-03T03:23:33.795Z,97.92
2023-04-03T03:26:12.290Z,98.34
2023-04-03T03:28:41.597Z,97.48
2023-04-03T03:31:10.298Z,98.13
2023-04-03T03:33:39.524Z,97.81
2023-04-03T03:36:07.948Z,97.90
2023-04-03T03:38:38.236Z,97.16
2023-04-03T03:41:06.613Z,97.42
2023-04-03T03:43:35.793Z,97.40
2023-04-03T03:46:04.853Z,98.31
2023-04-03T03:48:33.233Z,99.08
2023-04-03T03:51:01.176Z,99.44
2023-04-03T03:53:31.993Z,99.53
2023-04-03T03:56:03.894Z,98.79
2023-04-03T03:58:32.167Z,99.26
2023-04-03T04:01:04.987Z,99.44
2023-04-03T04:03:34.076Z,99.10
2023-04-03T04:06:03.186Z,99.62
2023-04-03T04:08:31.651Z,99.43
2023-04-03T04:10:59.700Z,99.47
2023-04-03T04:13:27.800Z,100.00
2023-04-03T04:15:56.133Z,100.00
2023-04-03T04:18:25.016Z,100.00
2023-04-03T04:20:53.300Z,99.99
2023-04-03T04:23:21.329Z,100.00
2023-04-03T04:25:50.540Z,99.89
2023-04-03T04:28:19.343Z,100.00
2023-04-03T04:30:48.524Z,100.00
2023-04-03T04:33:17.431Z,99.97
2023-04-03T04:35:49.035Z,100.00
2023-04-03T04:38:17.438Z,100.00
2023-04-03T04:40:45.655Z,100.00
2023-04-03T04:43:15.573Z,100.00
2023-04-03T04:45:44.293Z,100.00
2023-04-03T04:48:13.504Z,99.94
2023-04-03T04:50:41.457Z,99.85
2023-04-03T04:53:09.755Z,99.74
2023-04-03T04:55:37.974Z,99.77
2023-04-03T04:58:06.837Z,99.89
2023-04-03T05:00:36.356Z,99.90
2023-04-03T05:03:05.080Z,100.00
2023-04-03T05:05:33.089Z,100.00
2023-04-03T05:08:01.204Z,100.00
2023-04-03T05:10:29.721Z,99.97
2023-04-03T05:12:58.931Z,99.73
2023-04-03T05:15:27.351Z,99.26
2023-04-03T05:17:55.494Z,99.19
2023-04-03T05:20:23.445Z,98.98
2023-04-03T05:22:52.203Z,98.96
2023-04-03T05:25:20.283Z,98.60
2023-04-03T05:27:48.963Z,97.90
2023-04-03T05:30:17.764Z,97.51
2023-04-03T05:32:46.429Z,97.30
2023-04-03T05:35:20.149Z,96.52
2023-04-03T05:37:50.027Z,95.86
2023-04-03T05:40:19.661Z,95.21
2023-04-03T05:42:49.225Z,94.93
2023-04-03T05:45:17.916Z,94.17
2023-04-03T05:47:46.020Z,93.76
2023-04-03T05:50:15.754Z,93.04
2023-04-03T05:52:47.852Z,92.78
2023-04-03T05:55:16.499Z,92.20
2023-04-03T05:57:44.457Z,90.67
2023-04-03T06:00:16.773Z,90.33
2023-04-03T06:02:48.149Z,89.83
2023-04-03T06:05:19.936Z,88.82
2023-04-03T06:07:47.899Z,88.76
2023-04-03T06:10:17.141Z,87.78
2023-04-03T06:12:45.002Z,87.66
2023-04-03T06:15:12.880Z,85.30
2023-04-03T06:17:42.547Z,85.49
2023-04-03T06:20:11.193Z,85.52
2023-04-03T06:22:39.243Z,84.88
2023-04-03T06:25:07.659Z,84.79
2023-04-03T06:27:35.905Z,84.13
2023-04-03T06:30:04.167Z,82.98
2023-04-03T06:32:32.235Z,81.97
2023-04-03T06:35:01.345Z,82.35
2023-04-03T06:37:30.028Z,80.94
2023-04-03T06:39:58.006Z,79.04
2023-04-03T06:42:26.089Z,80.30
2023-04-03T06:45:02.165Z,78.23
2023-04-03T06:47:30.259Z,77.03
2023-04-03T06:49:58.925Z,76.75
2023-04-03T06:52:27.534Z,76.70
2023-04-03T06:54:58.812Z,76.19
2023-04-03T06:57:27.590Z,75.87
2023-04-03T06:59:55.484Z,74.61
2023-04-03T07:02:24.117Z,73.93
2023-04-03T07:04:52.104Z,73.55
2023-04-03T07:07:20.728Z,73.71
2023-04-03T07:09:49.217Z,73.73
2023-04-03T07:12:17.758Z,72.94
2023-04-03T07:14:45.652Z,72.66
2023-04-03T07:17:13.600Z,73.19
2023-04-03T07:19:41.471Z,71.73
2023-04-03T07:22:10.055Z,71.56
2023-04-03T07:24:38.043Z,70.19
2023-04-03T07:27:06.651Z,69.42
2023-04-03T07:29:34.633Z,69.69
2023-04-03T07:32:03.597Z,68.32
2023-04-03T07:34:31.864Z,68.57
2023-04-03T07:37:01.285Z,67.02
2023-04-03T07:39:30.045Z,67.45
2023-04-03T07:41:57.865Z,66.31
2023-04-03T07:44:26.391Z,64.75
2023-04-03T07:46:56.228Z,64.01
2023-04-03T07:49:25.314Z,63.70
2023-04-03T07:51:54.109Z,62.48
2023-04-03T07:54:22.002Z,61.56
2023-04-03T07:56:49.937Z,60.16
2023-04-03T07:59:17.823Z,60.99
2023-04-03T08:01:45.712Z,59.47
2023-04-03T08:04:13.720Z,58.87
2023-04-03T08:06:46.370Z,55.71
2023-04-03T08:09:16.936Z,55.34
2023-04-03T08:11:45.663Z,56.57
2023-04-03T08:14:18.021Z,54.15
2023-04-03T08:16:48.013Z,53.76
2023-04-03T08:19:26.263Z,55.98
2023-04-03T08:21:56.393Z,53.50
2023-04-03T08:24:24.561Z,53.10
2023-04-03T08:26:52.468Z,53.00
2023-04-03T08:29:20.502Z,53.07
2023-04-03T08:31:49.656Z,51.97
2023-04-03T08:34:18.318Z,52.30
2023-04-03T08:36:47.037Z,52.49
2023-04-03T08:39:14.944Z,51.07
2023-04-03T08:41:48.848Z,50.51
2023-04-03T08:44:37.591Z,51.18
2023-04-03T08:47:25.584Z,51.01
2023-04-03T08:50:06.896Z,52.59
2023-04-03T08:53:02.990Z,51.65
2023-04-03T08:55:46.939Z,49.93
2023-04-03T08:58:30.983Z,48.82
2023-04-03T09:01:16.723Z,49.24
2023-04-03T09:03:44.609Z,49.43
2023-04-03T09:06:26.536Z,49.64
2023-04-03T09:09:09.284Z,50.76
2023-04-03T09:11:46.089Z,51.34
2023-04-03T09:14:32.875Z,50.86
2023-04-03T09:17:06.022Z,50.33
2023-04-03T09:19:43.019Z,51.36
2023-04-03T09:22:28.121Z,51.29
2023-04-03T09:25:34.979Z,50.90
2023-04-03T09:28:03.904Z,49.05
2023-04-03T09:30:31.779Z,46.77
2023-04-03T09:32:59.757Z,46.73
2023-04-03T09:35:40.641Z,46.47
2023-04-03T09:38:22.107Z,46.11
2023-04-03T09:41:18.970Z,46.46
2023-04-03T09:43:55.398Z,46.70
2023-04-03T09:46:31.283Z,47.41
2023-04-03T09:49:08.918Z,46.88
2023-04-03T09:51:38.797Z,46.70
2023-04-03T09:54:33.861Z,46.99
2023-04-03T09:57:08.328Z,48.15
2023-04-03T09:59:38.634Z,48.24
2023-04-03T10:02:12.563Z,47.75
2023-04-03T10:04:42.837Z,48.28
2023-04-03T10:07:32.694Z,49.68
2023-04-03T10:10:30.235Z,49.00
2023-04-03T10:13:21.419Z,48.87
2023-04-03T10:15:57.251Z,49.16
2023-04-03T10:18:43.985Z,48.00
2023-04-03T10:21:35.774Z,48.21
2023-04-03T10:24:29.421Z,47.21
2023-04-03T10:27:32.591Z,47.90
2023-04-03T10:30:37.724Z,48.23
2023-04-03T10:33:25.763Z,47.28
2023-04-03T10:36:13.483Z,46.88
2023-04-03T10:39:12.832Z,46.35
2023-04-03T10:41:55.782Z,45.48
2023-04-03T10:44:52.170Z,45.71
2023-04-03T10:47:41.675Z,45.68
2023-04-03T10:50:31.064Z,45.59
2023-04-03T10:53:06.160Z,44.84
2023-04-03T10:56:01.143Z,43.99
2023-04-03T10:58:37.365Z,44.05
2023-04-03T11:01:14.333Z,45.09
2023-04-03T11:03:48.638Z,45.34
2023-04-03T11:06:19.475Z,45.16
2023-04-03T11:09:07.858Z,45.08
2023-04-03T11:11:40.961Z,44.97
2023-04-03T11:14:30.386Z,45.33
2023-04-03T11:17:08.047Z,45.27
2023-04-03T11:20:01.577Z,44.75
2023-04-03T11:22:55.718Z,43.34
2023-04-03T11:25:26.457Z,42.89
2023-04-03T11:27:58.843Z,43.46
2023-04-03T11:30:54.969Z,43.42
2023-04-03T11:34:01.705Z,44.76
2023-04-03T11:36:37.165Z,44.58
2023-04-03T11:39:31.760Z,43.99
2023-04-03T11:42:30.255Z,44.19
2023-04-03T11:45:17.564Z,44.39
2023-04-03T11:47:52.274Z,44.82
2023-04-03T11:50:35.561Z,44.30
2023-04-03T11:53:23.408Z,44.32
2023-04-03T11:55:51.353Z,43.86
2023-04-03T11:58:28.259Z,43.78
2023-04-03T12:01:05.593Z,44.21
2023-04-03T12:03:43.570Z,44.46
2023-04-03T12:06:11.706Z,42.95
2023-04-03T12:08:46.201Z,42.36
2023-04-03T12:11:17.809Z,42.45
2023-04-03T12:13:55.006Z,42.10
2023-04-03T12:16:38.252Z,41.68
2023-04-03T12:19:15.752Z,41.74
2023-04-03T12:21:50.019Z,42.56
2023-04-03T12:24:17.963Z,42.67
2023-04-03T12:26:52.832Z,42.63
2023-04-03T12:29:36.419Z,41.77
2023-04-03T12:32:04.980Z,42.39
2023-04-03T12:34:51.429Z,42.61
2023-04-03T12:37:29.402Z,42.91
2023-04-03T12:40:26.288Z,42.70
2023-04-03T12:43:18.497Z,41.75
2023-04-03T12:46:13.303Z,42.00
2023-04-03T12:48:57.076Z,41.97
2023-04-03T12:51:45.613Z,42.24
2023-04-03T12:54:25.084Z,41.24
2023-04-03T12:56:53.155Z,40.84
2023-04-03T12:59:27.414Z,41.14
2023-04-03T13:02:00.974Z,41.29
2023-04-03T13:04:30.726Z,41.28
2023-04-03T13:06:59.243Z,40.69
2023-04-03T13:09:29.749Z,40.57
2023-04-03T13:12:02.190Z,41.19
2023-04-03T13:14:31.452Z,39.99
2023-04-03T13:17:01.290Z,39.78
2023-04-03T13:19:30.215Z,40.70
2023-04-03T13:22:07.037Z,40.99
2023-04-03T13:24:40.105Z,41.38
2023-04-03T13:27:08.069Z,41.50
2023-04-03T13:29:38.599Z,41.30
2023-04-03T13:32:07.681Z,41.79
2023-04-03T13:34:44.204Z,41.22
2023-04-03T13:37:34.759Z,40.87
2023-04-03T13:40:08.802Z,40.69
2023-04-03T13:42:41.650Z,40.58
2023-04-03T13:45:21.450Z,41.02
2023-04-03T13:47:52.532Z,40.16
2023-04-03T13:50:20.492Z,39.74
2023-04-03T13:53:13.190Z,39.24
2023-04-03T13:56:08.138Z,39.59
2023-04-03T13:58:37.657Z,40.56
2023-04-03T14:01:23.310Z,40.62
2023-04-03T14:03:57.839Z,41.09
2023-04-03T14:06:26.664Z,41.24
2023-04-03T14:08:54.782Z,41.33
2023-04-03T14:11:28.454Z,41.32
2023-04-03T14:14:03.081Z,40.87
2023-04-03T14:16:33.393Z,41.29
2023-04-03T14:19:01.275Z,41.43
2023-04-03T14:21:29.129Z,41.40
2023-04-03T14:23:57.784Z,41.99
2023-04-03T14:26:28.173Z,41.92
2023-04-03T14:28:56.677Z,41.48
2023-04-03T14:31:25.930Z,41.80
2023-04-03T14:33:53.940Z,41.84
2023-04-03T14:36:27.249Z,41.20
2023-04-03T14:38:57.136Z,40.23
2023-04-03T14:41:27.461Z,40.26
2023-04-03T14:43:55.663Z,41.13
2023-04-03T14:46:35.390Z,41.06
2023-04-03T14:49:23.350Z,41.53
2023-04-03T14:51:51.673Z,41.95
2023-04-03T14:54:26.642Z,41.36
2023-04-03T14:56:56.934Z,41.38
2023-04-03T14:59:26.059Z,41.08
2023-04-03T15:01:54.140Z,40.18
2023-04-03T15:04:22.604Z,39.95
2023-04-03T15:06:52.592Z,39.87
2023-04-03T15:09:26.949Z,39.90
2023-04-03T15:11:56.105Z,40.57
2023-04-03T15:14:35.684Z,40.73
2023-04-03T15:17:07.009Z,41.32
2023-04-03T15:19:39.218Z,41.03
2023-04-03T15:22:07.998Z,41.56
2023-04-03T15:24:35.977Z,41.91
2023-04-03T15:27:04.254Z,41.22
2023-04-03T15:29:32.495Z,41.24
2023-04-03T15:32:00.440Z,41.25
2023-04-03T15:34:29.517Z,41.27
2023-04-03T15:36:57.402Z,41.21
2023-04-03T15:39:28.842Z,40.94
2023-04-03T15:41:57.965Z,40.66
2023-04-03T15:44:26.024Z,41.01
2023-04-03T15:46:54.087Z,41.51
2023-04-03T15:49:23.014Z,41.54
2023-04-03T15:51:51.035Z,41.58
2023-04-03T15:54:19.433Z,41.65
2023-04-03T15:56:47.263Z,41.88
2023-04-03T15:59:15.206Z,41.68
2023-04-03T16:01:43.753Z,41.24
2023-04-03T16:04:13.006Z,42.03
2023-04-03T16:06:42.369Z,42.53
2023-04-03T16:09:11.196Z,42.59
2023-04-03T16:11:41.029Z,42.83
2023-04-03T16:14:08.950Z,43.26
2023-04-03T16:16:38.075Z,43.74
2023-04-03T16:19:06.503Z,44.52
2023-04-03T16:21:34.953Z,44.94
2023-04-03T16:24:04.050Z,44.55
2023-04-03T16:26:32.611Z,44.75
2023-04-03T16:29:00.737Z,44.90
2023-04-03T16:31:29.538Z,44.86
2023-04-03T16:33:57.701Z,45.09
2023-04-03T16:36:26.956Z,44.97
2023-04-03T16:38:54.783Z,44.94
2023-04-03T16:41:23.132Z,45.00
2023-04-03T16:43:51.897Z,44.73
2023-04-03T16:46:19.845Z,44.62
2023-04-03T16:48:48.144Z,45.31
2023-04-03T16:51:16.053Z,45.34
2023-04-03T16:53:44.115Z,44.78
2023-04-03T16:56:11.931Z,43.74
2023-04-03T16:58:39.949Z,44.43
2023-04-03T17:01:16.866Z,43.95
2023-04-03T17:03:45.638Z,44.19
2023-04-03T17:06:18.441Z,43.85
2023-04-03T17:08:49.000Z,43.77
2023-04-03T17:11:37.488Z,43.79
2023-04-03T17:14:06.625Z,44.20
2023-04-03T17:16:37.802Z,44.21
2023-04-03T17:19:05.940Z,43.85
2023-04-03T17:21:34.534Z,44.51
2023-04-03T17:24:09.608Z,44.96
2023-04-03T17:26:37.781Z,44.89
2023-04-03T17:29:06.841Z,44.94
2023-04-03T17:31:35.437Z,45.32
2023-04-03T17:34:04.555Z,45.79
2023-04-03T17:36:34.541Z,46.12
2023-04-03T17:39:02.943Z,46.19
2023-04-03T17:41:31.295Z,46.35
2023-04-03T17:43:59.538Z,46.72
2023-04-03T17:46:28.092Z,47.00
2023-04-03T17:48:59.390Z,47.05
2023-04-03T17:51:28.179Z,47.45
2023-04-03T17:53:56.546Z,47.52
2023-04-03T17:56:27.279Z,47.85
2023-04-03T17:58:56.788Z,47.62
2023-04-03T18:01:29.393Z,47.96
2023-04-03T18:04:00.427Z,48.24
2023-04-03T18:06:32.685Z,48.46
2023-04-03T18:09:15.468Z,48.86
2023-04-03T18:11:45.581Z,49.61
2023-04-03T18:14:17.895Z,49.61
2023-04-03T18:16:46.340Z,49.84
2023-04-03T18:19:21.946Z,50.22
2023-04-03T18:21:57.183Z,50.53
2023-04-03T18:24:26.387Z,50.84
2023-04-03T18:26:59.779Z,51.28
2023-04-03T18:29:32.499Z,51.76
2023-04-03T18:32:01.773Z,52.04
2023-04-03T18:34:31.051Z,52.29
2023-04-03T18:37:00.076Z,52.34
2023-04-03T18:39:28.293Z,52.72
2023-04-03T18:42:00.448Z,52.58
2023-04-03T18:44:29.840Z,52.97
2023-04-03T18:47:00.181Z,52.88
2023-04-03T18:49:31.108Z,53.10
2023-04-03T18:51:59.670Z,52.94
2023-04-03T18:54:27.886Z,53.32
2023-04-03T18:56:56.210Z,53.37
2023-04-03T18:59:25.337Z,53.73
2023-04-03T19:01:55.126Z,54.00
2023-04-03T19:04:24.794Z,53.95
2023-04-03T19:06:53.870Z,54.01
2023-04-03T19:09:25.040Z,54.43
2023-04-03T19:11:53.167Z,54.75
2023-04-03T19:14:23.789Z,55.20
2023-04-03T19:16:51.969Z,55.55
2023-04-03T19:19:20.504Z,55.49
2023-04-03T19:21:48.809Z,55.81
2023-04-03T19:24:17.012Z,55.79
2023-04-03T19:26:45.115Z,56.07
2023-04-03T19:29:13.594Z,56.31
2023-04-03T19:31:41.564Z,56.11
2023-04-03T19:34:09.705Z,56.36
2023-04-03T19:36:38.143Z,56.40
2023-04-03T19:39:06.260Z,56.27
2023-04-03T19:41:36.880Z,56.61
2023-04-03T19:44:07.413Z,57.14
2023-04-03T19:46:36.552Z,57.24
2023-04-03T19:49:05.282Z,57.61
2023-04-03T19:51:33.875Z,57.65
2023-04-03T19:54:01.854Z,57.98
2023-04-03T19:56:29.865Z,58.27
2023-04-03T19:58:58.070Z,58.18
2023-04-03T20:01:30.073Z,58.42
2023-04-03T20:03:58.460Z,58.97
2023-04-03T20:06:26.635Z,59.74
2023-04-03T20:08:55.090Z,60.19
2023-04-03T20:11:23.855Z,61.07
2023-04-03T20:13:53.493Z,61.62
2023-04-03T20:16:25.247Z,61.76
2023-04-03T20:18:55.870Z,61.81
2023-04-03T20:21:29.381Z,62.53
2023-04-03T20:24:00.505Z,62.80
2023-04-03T20:26:31.709Z,62.42
2023-04-03T20:29:02.799Z,62.70
2023-04-03T20:31:32.849Z,62.82
2023-04-03T20:34:02.124Z,62.82
2023-04-03T20:36:31.246Z,62.73
2023-04-03T20:39:00.194Z,62.83
2023-04-03T20:41:28.348Z,62.90
2023-04-03T20:43:56.221Z,62.97
2023-04-03T20:46:38.343Z,62.91
2023-04-03T20:49:10.803Z,62.71
2023-04-03T20:51:39.314Z,62.76
2023-04-03T20:54:07.361Z,62.77
2023-04-03T20:56:36.446Z,63.08
2023-04-03T20:59:05.028Z,63.71
2023-04-03T21:01:33.638Z,63.27
2023-04-03T21:04:17.176Z,63.19
2023-04-03T21:07:23.013Z,63.71
2023-04-03T21:10:28.905Z,64.69
2023-04-03T21:13:35.026Z,64.35
2023-04-03T21:16:02.992Z,64.46
2023-04-03T21:18:50.850Z,64.57
2023-04-03T21:21:23.309Z,64.39
2023-04-03T21:23:53.135Z,64.37
2023-04-03T21:26:22.466Z,65.11
2023-04-03T21:28:52.361Z,66.81
2023-04-03T21:31:22.143Z,65.85
2023-04-03T21:33:51.250Z,66.07
2023-04-03T21:36:19.331Z,66.21
2023-04-03T21:38:47.811Z,66.28
2023-04-03T21:41:15.680Z,65.76
2023-04-03T21:43:46.499Z,66.76
2023-04-03T21:46:14.353Z,66.17
2023-04-03T21:48:42.558Z,66.80
2023-04-03T21:51:11.195Z,68.27
2023-04-03T21:53:40.186Z,68.47
2023-04-03T21:56:08.537Z,67.68
2023-04-03T21:58:36.424Z,67.38
2023-04-03T22:01:14.713Z,67.89
2023-04-03T22:03:44.576Z,67.55
2023-04-03T22:06:14.657Z,67.28
2023-04-03T22:08:43.248Z,67.33
2023-04-03T22:11:14.704Z,67.10
2023-04-03T22:13:43.917Z,66.86
2023-04-03T22:16:12.956Z,66.84
2023-04-03T22:18:41.188Z,66.47
2023-04-03T22:21:09.342Z,66.20
2023-04-03T22:23:38.135Z,66.04
2023-04-03T22:26:13.115Z,65.34
2023-04-03T22:28:43.808Z,65.29
2023-04-03T22:31:13.537Z,65.45
2023-04-03T22:33:43.670Z,65.67
2023-04-03T22:36:12.967Z,65.10
2023-04-03T22:38:44.982Z,65.34
2023-04-03T22:41:13.437Z,65.22
2023-04-03T22:43:41.681Z,65.32
2023-04-03T22:46:10.496Z,65.51
2023-04-03T22:48:43.156Z,65.41
2023-04-03T22:51:12.473Z,65.56
2023-04-03T22:53:40.321Z,65.53
2023-04-03T22:56:09.127Z,65.73
2023-04-03T22:58:37.792Z,65.75
2023-04-03T23:01:13.805Z,65.67
2023-04-03T23:03:42.746Z,65.74
2023-04-03T23:06:11.092Z,65.89
2023-04-03T23:08:39.569Z,65.89
2023-04-03T23:11:07.747Z,66.19
2023-04-03T23:13:36.247Z,66.31
2023-04-03T23:16:05.027Z,66.24
2023-04-03T23:18:33.537Z,66.06
2023-04-03T23:21:04.164Z,66.39
2023-04-03T23:23:32.902Z,66.02
2023-04-03T23:26:02.678Z,65.99
2023-04-03T23:28:31.302Z,66.41
2023-04-03T23:31:02.015Z,66.81
2023-04-03T23:33:31.924Z,66.72
2023-04-03T23:36:05.825Z,66.69
2023-04-03T23:38:34.955Z,66.68
2023-04-03T23:41:02.940Z,66.58
2023-04-03T23:43:32.153Z,66.38
2023-04-03T23:46:00.254Z,66.48
2023-04-03T23:48:28.332Z,67.12
2023-04-03T23:50:56.332Z,66.95
2023-04-03T23:53:24.338Z,66.93
2023-04-03T23:55:52.227Z,66.93
2023-04-03T23:58:20.355Z,67.68
